Time;durP1;ratioP1;P1;durP2;ratioP2;P2;SDS_P1;SDS_P2;PMS_P1;PMS_P2;Temp;Humidity;BMP_temperature;BMP_pressure;BME280_temperature;BME280_humidity;BME280_pressure;Samples;Min_cycle;Max_cycle;Signal;HPM_P1;HPM_P2
2024/02/01 00:00:14;;;;;;;5.55;1.60;;;;;;;7.84;100.00;98449.28;5040349;28;20119;-59
2024/02/01 00:02:40;;;;;;;5.05;2.30;;;;;;;8.12;100.00;98453.63;5037997;28;20124;-59
2024/02/01 00:05:07;;;;;;;3.13;1.80;;;;;;;8.29;100.00;98445.91;5039136;28;20604;-60
2024/02/01 00:07:35;;;;;;;3.95;1.92;;;;;;;8.37;100.00;98438.63;5039213;28;20041;-59
2024/02/01 00:10:01;;;;;;;3.42;1.65;;;;;;;8.45;100.00;98435.72;5034687;28;20050;-59
2024/02/01 00:12:28;;;;;;;4.47;1.77;;;;;;;8.42;100.00;98455.84;5038264;28;20045;-59
2024/02/01 00:14:54;;;;;;;4.35;1.65;;;;;;;8.44;100.00;98431.34;5037527;28;20645;-59
2024/02/01 00:17:21;;;;;;;3.03;1.60;;;;;;;8.56;100.00;98432.38;5049071;28;20062;-58
2024/02/01 00:19:48;;;;;;;3.13;1.52;;;;;;;8.66;100.00;98428.41;5039715;28;20045;-59
2024/02/01 00:22:14;;;;;;;6.93;2.17;;;;;;;8.62;100.00;98435.28;5054141;28;20046;-60
2024/02/01 00:24:55;;;;;;;3.42;1.73;;;;;;;8.59;100.00;98425.75;5036227;28;20059;-59
2024/02/01 00:27:22;;;;;;;5.40;1.90;;;;;;;8.48;100.00;98426.34;5043362;28;20419;-59
2024/02/01 00:29:48;;;;;;;4.20;1.90;;;;;;;8.39;100.00;98421.19;5033224;28;20052;-59
2024/02/01 00:32:15;;;;;;;3.90;2.00;;;;;;;8.54;100.00;98430.94;5035253;28;20166;-59
2024/02/01 00:34:42;;;;;;;5.15;2.50;;;;;;;8.55;100.00;98432.59;5041154;28;20044;-59
2024/02/01 00:37:09;;;;;;;6.05;2.70;;;;;;;8.53;100.00;98435.50;5032675;28;20515;-59
2024/02/01 00:39:35;;;;;;;7.07;2.65;;;;;;;8.50;100.00;98435.06;5040655;28;20033;-59
2024/02/01 00:42:02;;;;;;;6.82;3.15;;;;;;;8.40;100.00;98427.44;5048483;28;20052;-59
2024/02/01 00:44:29;;;;;;;8.73;3.35;;;;;;;8.26;100.00;98429.31;5038492;28;20378;-58
2024/02/01 00:46:55;;;;;;;8.00;3.50;;;;;;;8.11;100.00;98424.97;5037838;28;20188;-59
2024/02/01 00:49:22;;;;;;;7.68;3.72;;;;;;;8.21;100.00;98421.84;5040193;28;20116;-58
2024/02/01 00:51:49;;;;;;;11.10;4.60;;;;;;;8.06;100.00;98425.63;5043212;28;20448;-59
2024/02/01 00:54:15;;;;;;;9.73;4.15;;;;;;;7.94;100.00;98432.69;5040600;28;20052;-60
2024/02/01 00:56:42;;;;;;;9.20;4.30;;;;;;;7.89;100.00;98437.88;5038099;28;20515;-60
2024/02/01 00:59:09;;;;;;;8.25;4.78;;;;;;;7.84;100.00;98448.44;5036132;28;21518;-59
2024/02/01 01:01:36;;;;;;;8.48;4.45;;;;;;;7.68;100.00;98440.53;5030159;28;20083;-60
2024/02/01 01:04:03;;;;;;;8.45;4.93;;;;;;;7.62;100.00;98448.63;5042082;28;20116;-58
2024/02/01 01:06:29;;;;;;;11.07;5.07;;;;;;;7.72;100.00;98449.06;5040156;28;20044;-59
2024/02/01 01:08:56;;;;;;;11.02;5.88;;;;;;;7.70;100.00;98447.63;5037925;28;20038;-59
2024/02/01 01:11:23;;;;;;;10.70;5.45;;;;;;;7.77;100.00;98456.53;5042292;28;20045;-59
2024/02/01 01:13:49;;;;;;;9.30;5.70;;;;;;;7.66;100.00;98463.34;5025009;28;20601;-59
2024/02/01 01:16:16;;;;;;;13.05;7.03;;;;;;;7.60;100.00;98467.72;5022036;28;20059;-59
2024/02/01 01:18:42;;;;;;;12.98;7.50;;;;;;;7.52;100.00;98467.91;5038179;28;20508;-59
2024/02/01 01:21:09;;;;;;;14.88;6.28;;;;;;;7.55;100.00;98468.34;5041253;28;20055;-59
2024/02/01 01:23:36;;;;;;;12.00;7.10;;;;;;;7.51;100.00;98464.38;5047888;28;20065;-60
2024/02/01 01:26:02;;;;;;;14.32;7.63;;;;;;;7.54;100.00;98458.59;5051150;28;20045;-58
2024/02/01 01:28:29;;;;;;;10.90;6.90;;;;;;;7.42;100.00;98449.44;5054564;28;20037;-59
2024/02/01 01:30:55;;;;;;;12.70;6.38;;;;;;;7.54;100.00;98461.28;5040660;28;20063;-59
2024/02/01 01:33:22;;;;;;;12.45;6.53;;;;;;;7.45;100.00;98454.44;5033900;28;20053;-59
2024/02/01 01:35:49;;;;;;;11.60;6.63;;;;;;;7.50;100.00;98448.41;5045830;28;20048;-59
2024/02/01 01:38:15;;;;;;;12.32;7.32;;;;;;;7.39;100.00;98452.53;5035808;28;20512;-58
2024/02/01 01:40:42;;;;;;;13.10;6.30;;;;;;;7.31;100.00;98450.88;5043073;28;20044;-59
2024/02/01 01:43:08;;;;;;;11.93;6.95;;;;;;;7.29;100.00;98455.63;5052720;28;20124;-59
2024/02/01 01:45:35;;;;;;;14.38;6.70;;;;;;;7.33;100.00;98454.19;5038934;28;20053;-59
2024/02/01 01:48:01;;;;;;;10.18;6.35;;;;;;;7.30;100.00;98462.69;5049003;28;20041;-59
2024/02/01 01:50:28;;;;;;;11.18;6.50;;;;;;;7.32;100.00;98457.09;5054033;28;20045;-58
2024/02/01 01:52:56;;;;;;;8.65;5.85;;;;;;;7.34;100.00;98461.22;5045547;28;20412;-59
2024/02/01 01:55:25;;;;;;;10.85;6.65;;;;;;;7.36;100.00;98456.47;5044517;28;20102;-59
2024/02/01 01:57:52;;;;;;;10.23;6.05;;;;;;;7.29;100.00;98456.47;5036242;28;20034;-59
2024/02/01 02:00:20;;;;;;;11.15;6.05;;;;;;;7.32;100.00;98460.63;5036954;28;20044;-58
2024/02/01 02:02:47;;;;;;;12.10;6.82;;;;;;;7.22;100.00;98452.91;5030409;28;20110;-59
2024/02/01 02:05:14;;;;;;;10.35;5.97;;;;;;;7.28;100.00;98456.66;5037256;28;20042;-59
2024/02/01 02:07:41;;;;;;;9.70;5.28;;;;;;;7.22;100.00;98461.00;5037579;28;20045;-59
2024/02/01 02:10:14;;;;;;;12.65;5.68;;;;;;;7.23;100.00;98453.75;5043341;28;20045;-59
2024/02/01 02:12:42;;;;;;;13.63;5.75;;;;;;;7.14;100.00;98440.47;5047565;28;20045;-59
2024/02/01 02:15:10;;;;;;;8.25;5.07;;;;;;;7.28;100.00;98453.97;5045716;28;20116;-61
2024/02/01 02:17:38;;;;;;;8.48;5.30;;;;;;;7.26;100.00;98456.06;5020383;28;20061;-59
2024/02/01 02:20:17;;;;;;;9.75;5.60;;;;;;;7.10;100.00;98460.78;5038974;28;20043;-59
2024/02/01 02:22:47;;;;;;;12.73;5.70;;;;;;;7.02;100.00;98458.25;5057313;28;20430;-60
2024/02/01 02:25:14;;;;;;;10.05;4.63;;;;;;;7.08;100.00;98445.84;5050725;28;20037;-57
2024/02/01 02:27:41;;;;;;;8.95;4.88;;;;;;;7.05;100.00;98438.16;5041838;28;20044;-59
2024/02/01 02:30:11;;;;;;;8.93;4.78;;;;;;;7.00;100.00;98434.22;5037908;28;20543;-59
2024/02/01 02:32:39;;;;;;;10.63;5.65;;;;;;;6.99;100.00;98432.56;5032877;28;20043;-59
2024/02/01 02:35:14;;;;;;;7.85;4.22;;;;;;;7.02;100.00;98434.03;5043566;28;20037;-61
2024/02/01 02:37:48;;;;;;;7.63;4.28;;;;;;;7.06;100.00;98429.88;5052042;28;20395;-60
2024/02/01 02:40:16;;;;;;;6.95;4.03;;;;;;;7.10;100.00;98433.00;5040772;28;20092;-59
2024/02/01 02:42:43;;;;;;;6.65;3.72;;;;;;;7.01;100.00;98422.41;5037382;28;20731;-60
2024/02/01 02:45:10;;;;;;;6.85;4.07;;;;;;;7.00;100.00;98425.28;5043298;28;20041;-60
2024/02/01 02:47:38;;;;;;;8.65;3.10;;;;;;;7.02;100.00;98420.56;5039443;28;20495;-59
2024/02/01 02:50:08;;;;;;;6.47;3.25;;;;;;;7.02;100.00;98429.47;5057334;28;20055;-60
2024/02/01 02:52:37;;;;;;;6.72;3.40;;;;;;;7.05;100.00;98433.63;5047728;28;20099;-60
2024/02/01 02:55:07;;;;;;;7.15;3.90;;;;;;;7.01;100.00;98432.38;5041421;28;20053;-60
2024/02/01 02:57:34;;;;;;;6.18;3.15;;;;;;;7.10;100.00;98441.06;5033052;28;20065;-60
2024/02/01 03:00:02;;;;;;;6.63;2.65;;;;;;;7.20;100.00;98441.53;5042138;28;20055;-60
2024/02/01 03:02:30;;;;;;;4.75;3.00;;;;;;;7.24;100.00;98440.09;5049822;28;20520;-60
2024/02/01 03:04:56;;;;;;;5.38;2.83;;;;;;;7.29;100.00;98450.25;5046504;28;20048;-59
2024/02/01 03:07:23;;;;;;;6.85;2.88;;;;;;;7.47;100.00;98448.81;5045242;28;20040;-59
2024/02/01 03:09:49;;;;;;;6.43;2.58;;;;;;;7.45;100.00;98446.34;5043103;28;20055;-60
2024/02/01 03:12:16;;;;;;;5.65;2.70;;;;;;;7.40;100.00;98446.97;5034549;28;20037;-60
2024/02/01 03:14:42;;;;;;;5.80;2.63;;;;;;;7.30;100.00;98433.06;5037412;28;20044;-60
2024/02/01 03:17:09;;;;;;;6.18;3.03;;;;;;;7.20;100.00;98430.75;5043554;28;20036;-60
2024/02/01 03:19:38;;;;;;;6.55;2.97;;;;;;;7.10;100.00;98422.22;5039142;28;21742;-60
2024/02/01 03:22:06;;;;;;;4.72;2.65;;;;;;;6.92;100.00;98409.34;5035591;28;20136;-60
2024/02/01 03:24:33;;;;;;;5.82;2.83;;;;;;;6.83;100.00;98406.84;5036658;28;20045;-59
2024/02/01 03:27:00;;;;;;;4.90;2.70;;;;;;;6.82;100.00;98399.78;5035116;28;20599;-60
2024/02/01 03:29:35;;;;;;;4.53;2.38;;;;;;;6.88;100.00;98403.53;5044484;28;20045;-59
2024/02/01 03:32:05;;;;;;;6.07;3.10;;;;;;;6.86;100.00;98411.00;5041271;28;20050;-60
2024/02/01 03:34:32;;;;;;;5.15;2.45;;;;;;;6.87;100.00;98401.88;5032465;28;20037;-59
2024/02/01 03:37:01;;;;;;;4.28;2.10;;;;;;;6.95;100.00;98407.06;5039308;28;20116;-58
2024/02/01 03:39:29;;;;;;;5.90;2.50;;;;;;;7.03;100.00;98406.91;5040481;28;20033;-59
2024/02/01 03:41:57;;;;;;;6.70;2.38;;;;;;;7.04;100.00;98402.31;5045784;28;20037;-59
2024/02/01 03:44:24;;;;;;;5.03;2.10;;;;;;;7.20;100.00;98403.81;5039290;28;20049;-59
2024/02/01 03:46:51;;;;;;;3.90;2.08;;;;;;;7.19;100.00;98404.84;5045232;28;20041;-59
2024/02/01 03:49:19;;;;;;;5.35;2.50;;;;;;;7.22;100.00;98419.78;5034641;28;20642;-58
2024/02/01 03:51:46;;;;;;;4.35;2.10;;;;;;;7.21;100.00;98418.94;5037241;28;20072;-60
2024/02/01 03:54:14;;;;;;;5.95;2.30;;;;;;;7.19;100.00;98418.31;5052248;28;20032;-60
2024/02/01 03:56:41;;;;;;;5.93;2.60;;;;;;;7.28;100.00;98422.50;5038387;28;20045;-60
2024/02/01 03:59:09;;;;;;;5.50;2.55;;;;;;;7.33;100.00;98431.81;5040756;28;20041;-60
2024/02/01 04:01:36;;;;;;;5.60;2.95;;;;;;;7.32;100.00;98424.75;5032017;28;20041;-60
2024/02/01 04:04:06;;;;;;;6.18;2.70;;;;;;;7.29;100.00;98429.53;5039399;28;20192;-60
2024/02/01 04:06:36;;;;;;;5.43;2.63;;;;;;;7.26;100.00;98434.50;5052898;28;20048;-60
2024/02/01 04:09:04;;;;;;;6.43;2.88;;;;;;;7.11;100.00;98426.59;5040050;28;20045;-60
2024/02/01 04:11:31;;;;;;;7.68;2.92;;;;;;;7.04;100.00;98423.88;5040064;28;20563;-59
2024/02/01 04:13:58;;;;;;;5.95;2.63;;;;;;;7.09;100.00;98425.97;5056976;28;20043;-60
2024/02/01 04:16:25;;;;;;;4.95;2.53;;;;;;;7.16;100.00;98405.25;5039389;28;20049;-59
2024/02/01 04:18:52;;;;;;;6.53;2.70;;;;;;;7.19;100.00;98396.75;5041319;28;20041;-59
2024/02/01 04:21:19;;;;;;;5.68;2.50;;;;;;;7.12;100.00;98398.63;5055430;28;20120;-60
2024/02/01 04:23:46;;;;;;;4.80;2.38;;;;;;;7.20;100.00;98401.13;5044187;28;20116;-59
2024/02/01 04:26:15;;;;;;;5.60;2.58;;;;;;;7.11;100.00;98405.88;5039841;28;20717;-60
2024/02/01 04:28:45;;;;;;;4.63;2.05;;;;;;;7.15;100.00;98404.44;5039983;28;20095;-60
2024/02/01 04:31:12;;;;;;;4.20;1.80;;;;;;;7.31;100.00;98399.69;5049691;28;20163;-60
2024/02/01 04:33:41;;;;;;;5.75;2.35;;;;;;;7.28;100.00;98395.56;5048275;28;20041;-60
2024/02/01 04:36:08;;;;;;;4.38;1.92;;;;;;;7.38;100.00;98395.13;5043011;28;20411;-61
2024/02/01 04:38:36;;;;;;;5.25;2.35;;;;;;;7.35;100.00;98390.16;5052498;28;20049;-61
2024/02/01 04:41:07;;;;;;;5.70;2.25;;;;;;;7.21;100.00;98391.16;5052285;28;20032;-61
2024/02/01 04:43:33;;;;;;;5.00;2.25;;;;;;;7.14;100.00;98391.16;5036126;28;20044;-60
2024/02/01 04:46:00;;;;;;;5.10;2.72;;;;;;;7.27;100.00;98390.38;5049953;28;20045;-60
2024/02/01 04:48:26;;;;;;;3.78;2.08;;;;;;;7.26;100.00;98378.75;5054711;28;20105;-60
2024/02/01 04:50:54;;;;;;;3.95;1.92;;;;;;;7.29;100.00;98391.81;5045853;28;20105;-60
2024/02/01 04:53:20;;;;;;;4.25;2.15;;;;;;;7.30;100.00;98387.25;5050237;28;20040;-61
2024/02/01 04:55:50;;;;;;;4.93;2.10;;;;;;;7.42;100.00;98382.09;5055013;28;20048;-60
2024/02/01 04:58:19;;;;;;;3.58;1.65;;;;;;;7.35;100.00;98387.47;5040390;28;20068;-60
2024/02/01 05:00:46;;;;;;;3.05;1.52;;;;;;;7.39;100.00;98379.78;5050946;28;20494;-60
2024/02/01 05:03:16;;;;;;;8.13;2.00;;;;;;;7.41;100.00;98397.41;5060829;28;20079;-60
2024/02/01 05:05:45;;;;;;;4.13;1.60;;;;;;;7.39;100.00;98387.88;5047034;28;20103;-59
2024/02/01 05:08:15;;;;;;;3.47;1.60;;;;;;;7.40;100.00;98393.06;5048145;28;20108;-60
2024/02/01 05:10:45;;;;;;;4.47;1.50;;;;;;;7.44;100.00;98395.34;5047591;28;20424;-60
2024/02/01 05:13:14;;;;;;;3.08;1.33;;;;;;;7.45;100.00;98399.69;5037105;28;20079;-60
2024/02/01 05:15:46;;;;;;;3.03;1.30;;;;;;;7.42;100.00;98393.69;5046577;28;20041;-60
2024/02/01 05:18:13;;;;;;;2.60;1.08;;;;;;;7.46;100.00;98396.81;5038296;28;20037;-60
2024/02/01 05:20:42;;;;;;;3.83;1.17;;;;;;;7.32;100.00;98382.50;5042753;28;20592;-60
2024/02/01 05:23:09;;;;;;;1.85;0.90;;;;;;;7.32;100.00;98390.56;5041818;28;20049;-60
2024/02/01 05:25:40;;;;;;;4.32;1.52;;;;;;;7.26;100.00;98376.06;5046355;28;20041;-60
2024/02/01 05:28:10;;;;;;;;;;;;;;;7.22;100.00;98371.28;5055829;28;20045;-60
2024/02/01 05:30:42;;;;;;;1.98;1.00;;;;;;;7.24;100.00;98363.81;5045698;28;20319;-62
2024/02/01 05:33:08;;;;;;;;;;;;;;;7.26;100.00;98361.78;5047225;28;20044;-60
2024/02/01 05:35:36;;;;;;;2.42;1.17;;;;;;;7.32;100.00;98369.00;5043059;28;19921;-60
2024/02/01 05:38:05;;;;;;;3.38;1.08;;;;;;;7.32;100.00;98362.78;5049117;28;20037;-60
2024/02/01 05:40:32;;;;;;;2.40;1.10;;;;;;;7.38;100.00;98368.19;5039258;28;20049;-62
2024/02/01 05:43:01;;;;;;;2.40;0.93;;;;;;;7.27;100.00;98364.22;5043369;28;20040;-63
2024/02/01 05:45:28;;;;;;;3.50;1.23;;;;;;;7.30;100.00;98360.31;5042846;28;20042;-60
2024/02/01 05:47:56;;;;;;;2.00;1.30;;;;;;;7.26;100.00;98372.53;5050574;28;20033;-60
2024/02/01 05:50:23;;;;;;;3.78;1.25;;;;;;;7.24;100.00;98380.84;5045267;28;20123;-60
2024/02/01 05:52:50;;;;;;;4.65;1.60;;;;;;;7.22;100.00;98382.88;5057426;28;20051;-60
2024/02/01 05:55:16;;;;;;;2.42;1.20;;;;;;;7.14;100.00;98383.91;5046482;28;20046;-60
2024/02/01 05:57:43;;;;;;;4.50;1.15;;;;;;;7.09;100.00;98394.47;5048789;28;20040;-60
2024/02/01 06:00:10;;;;;;;4.30;1.30;;;;;;;7.06;100.00;98400.25;5043336;28;20080;-60
2024/02/01 06:02:37;;;;;;;3.63;1.40;;;;;;;6.99;100.00;98404.78;5041481;28;20041;-60
2024/02/01 06:05:05;;;;;;;3.22;1.30;;;;;;;6.90;100.00;98404.16;5054017;28;20041;-60
2024/02/01 06:07:31;;;;;;;3.63;1.23;;;;;;;6.89;100.00;98405.19;5041690;28;20105;-60
2024/02/01 06:09:59;;;;;;;2.50;1.25;;;;;;;6.79;100.00;98402.88;5043163;28;20045;-63
2024/02/01 06:12:28;;;;;;;2.20;1.05;;;;;;;6.70;100.00;98406.75;5055751;28;20036;-60
2024/02/01 06:14:59;;;;;;;3.25;1.50;;;;;;;6.69;100.00;98411.34;5044609;28;20037;-60
2024/02/01 06:17:26;;;;;;;4.57;1.65;;;;;;;6.61;100.00;98406.97;5043384;28;20037;-60
2024/02/01 06:19:53;;;;;;;4.35;1.55;;;;;;;6.51;100.00;98406.50;5049167;28;20045;-60
2024/02/01 06:22:20;;;;;;;3.78;1.48;;;;;;;6.45;100.00;98410.00;5034647;28;20038;-60
2024/02/01 06:24:46;;;;;;;4.57;1.95;;;;;;;6.44;100.00;98414.53;5038228;28;20045;-60
2024/02/01 06:27:13;;;;;;;3.83;1.63;;;;;;;6.35;100.00;98413.03;5057562;28;20078;-62
2024/02/01 06:29:40;;;;;;;5.88;1.77;;;;;;;6.39;100.00;98408.94;5052777;28;20109;-60
2024/02/01 06:32:19;;;;;;;8.55;1.60;;;;;;;6.51;100.00;98417.25;5049018;28;20095;-60
2024/02/01 06:34:54;;;;;;;4.43;1.55;;;;;;;6.46;100.00;98412.50;5033867;28;20664;-62
2024/02/01 06:37:21;;;;;;;6.57;1.70;;;;;;;6.46;100.00;98417.03;5040680;28;20051;-62
2024/02/01 06:45:32;;;;;;;3.85;1.65;;;;;;;6.15;100.00;98434.44;5049673;28;20052;-61
2024/02/01 06:48:07;;;;;;;4.65;1.52;;;;;;;6.15;100.00;98429.06;5047574;28;20071;-62
2024/02/01 06:50:46;;;;;;;7.93;2.35;;;;;;;6.17;100.00;98427.84;5051128;28;20043;-62
2024/02/01 06:53:19;;;;;;;7.20;1.90;;;;;;;6.24;100.00;98426.00;5048096;28;20449;-63
2024/02/01 06:55:54;;;;;;;6.80;1.92;;;;;;;6.17;100.00;98427.00;5036796;28;20075;-62
2024/02/01 06:58:38;;;;;;;3.42;1.40;;;;;;;6.20;100.00;98430.13;5037936;28;20052;-62
2024/02/01 07:01:24;;;;;;;4.93;1.55;;;;;;;6.26;100.00;98436.56;5040550;28;20675;-62
2024/02/01 07:04:07;;;;;;;3.95;2.00;;;;;;;6.23;100.00;98431.59;5049176;28;20072;-62
2024/02/01 07:06:35;;;;;;;5.07;1.70;;;;;;;6.07;100.00;98424.66;5055615;28;20068;-62
2024/02/01 07:14:36;;;;;;;5.55;1.67;;;;;;;6.13;100.00;98421.19;5037956;28;20042;-62
2024/02/01 07:17:27;;;;;;;5.57;1.50;;;;;;;6.16;100.00;98428.84;5052291;28;20032;-62
2024/02/01 07:19:56;;;;;;;4.30;1.83;;;;;;;6.21;100.00;98431.78;5048626;28;20128;-62
2024/02/01 07:22:39;;;;;;;5.63;1.88;;;;;;;6.22;100.00;98424.53;5039177;28;20485;-62
2024/02/01 07:25:11;;;;;;;3.83;1.60;;;;;;;6.30;100.00;98419.00;5036302;28;20037;-62
2024/02/01 07:57:58;;;;;;;3.17;1.10;;;;;;;6.15;100.00;98464.03;5046924;28;20040;-63
2024/02/01 08:00:33;;;;;;;1.92;0.95;;;;;;;6.05;100.00;98467.88;5045069;28;20041;-62
2024/02/01 08:03:04;;;;;;;2.83;0.90;;;;;;;6.04;100.00;98470.78;5053125;28;20080;-62
2024/02/01 08:08:17;;;;;;;3.70;0.98;;;;;;;6.10;100.00;98478.88;5037764;28;20025;-62
2024/02/01 08:10:44;;;;;;;2.30;0.80;;;;;;;6.08;100.00;98483.63;5042349;28;20045;-62
2024/02/01 08:13:14;;;;;;;4.07;1.10;;;;;;;6.12;100.00;98481.38;5046618;28;20033;-62
2024/02/01 08:15:42;;;;;;;3.38;1.48;;;;;;;5.95;100.00;98495.09;5042215;28;20045;-62
2024/02/01 08:18:10;;;;;;;4.70;1.52;;;;;;;5.96;100.00;98503.97;5042008;28;20044;-62
2024/02/01 08:20:41;;;;;;;5.13;1.70;;;;;;;6.02;100.00;98505.03;5049389;28;20135;-62
2024/02/01 08:23:13;;;;;;;3.10;1.05;;;;;;;6.11;100.00;98504.75;5052542;28;20056;-62
2024/02/01 08:25:42;;;;;;;4.13;1.10;;;;;;;5.99;100.00;98522.41;5042937;28;20064;-62
2024/02/01 08:28:09;;;;;;;4.05;1.40;;;;;;;5.99;100.00;98517.03;5050968;28;20037;-63
2024/02/01 08:30:36;;;;;;;5.05;1.63;;;;;;;5.90;100.00;98528.94;5033268;28;20068;-63
2024/02/01 08:33:15;;;;;;;2.47;0.82;;;;;;;5.95;100.00;98531.88;5042368;28;20049;-63
2024/02/01 08:35:43;;;;;;;2.17;1.00;;;;;;;6.06;100.00;98531.41;5042239;28;20056;-63
2024/02/01 08:38:09;;;;;;;1.88;0.98;;;;;;;6.03;100.00;98518.34;5057396;28;20051;-62
2024/02/01 08:40:40;;;;;;;3.05;1.05;;;;;;;6.07;100.00;98521.44;5051829;28;20113;-63
2024/02/01 08:43:09;;;;;;;3.47;0.80;;;;;;;6.19;100.00;98522.59;5048218;28;20046;-63
2024/02/01 08:45:42;;;;;;;1.23;0.60;;;;;;;6.32;100.00;98518.34;5054645;28;20063;-63
2024/02/01 08:48:09;;;;;;;1.45;0.70;;;;;;;6.32;100.00;98505.72;5038003;28;20643;-63
2024/02/01 08:50:42;;;;;;;1.95;0.70;;;;;;;6.27;100.00;98496.59;5040405;28;20055;-63
2024/02/01 08:53:11;;;;;;;0.98;0.60;;;;;;;6.21;100.00;98504.41;5050002;28;20049;-62
2024/02/01 08:55:38;;;;;;;2.30;1.33;;;;;;;6.24;100.00;98495.13;5052268;28;20098;-62
2024/02/01 08:58:08;;;;;;;1.65;0.60;;;;;;;6.29;100.00;98507.97;5045964;28;20041;-62
2024/02/01 09:00:38;;;;;;;0.98;0.45;;;;;;;6.40;100.00;98501.19;5046580;28;20060;-62
2024/02/01 09:03:06;;;;;;;1.05;0.60;;;;;;;6.42;100.00;98507.22;5046191;28;20053;-62
2024/02/01 09:05:34;;;;;;;2.00;0.73;;;;;;;6.32;100.00;98502.19;5037876;28;20037;-61
2024/02/01 09:08:07;;;;;;;2.25;0.75;;;;;;;6.40;100.00;98506.59;5039263;28;20045;-62
2024/02/01 09:10:33;;;;;;;0.70;0.50;;;;;;;6.69;100.00;98500.16;5047963;28;20064;-62
2024/02/01 09:13:01;;;;;;;2.72;0.88;;;;;;;6.75;100.00;98501.22;5046552;28;20956;-63
2024/02/01 09:15:31;;;;;;;2.67;0.70;;;;;;;6.74;100.00;98500.38;5036562;28;20603;-63
2024/02/01 09:17:58;;;;;;;1.85;0.57;;;;;;;6.86;100.00;98500.66;5040453;28;20685;-62
2024/02/01 09:20:25;;;;;;;1.27;0.80;;;;;;;7.14;100.00;98502.44;5032003;28;20041;-63
2024/02/01 09:22:54;;;;;;;1.60;0.80;;;;;;;7.28;100.00;98494.38;5032084;28;20048;-63
2024/02/01 09:25:22;;;;;;;1.25;0.60;;;;;;;7.19;100.00;98495.59;5039884;28;20041;-63
2024/02/01 09:27:50;;;;;;;1.25;0.55;;;;;;;7.40;100.00;98498.16;5035303;28;20559;-63
2024/02/01 09:30:19;;;;;;;1.17;0.52;;;;;;;7.28;100.00;98495.22;5046108;28;20045;-62
2024/02/01 09:32:53;;;;;;;1.55;0.73;;;;;;;7.36;100.00;98498.75;5037290;28;20044;-63
2024/02/01 09:35:21;;;;;;;1.85;0.60;;;;;;;7.34;100.00;98503.53;5048983;28;20047;-63
2024/02/01 09:37:54;;;;;;;1.58;0.50;;;;;;;7.32;100.00;98501.03;5044063;28;20547;-63
2024/02/01 09:40:22;;;;;;;1.98;0.73;;;;;;;7.40;100.00;98508.09;5037254;28;20041;-63
2024/02/01 09:42:50;;;;;;;1.40;0.57;;;;;;;7.44;100.00;98517.44;5046264;28;20049;-63
2024/02/01 09:45:21;;;;;;;1.55;0.70;;;;;;;7.52;100.00;98519.13;5045379;28;20195;-63
2024/02/01 09:47:48;;;;;;;1.20;0.50;;;;;;;7.65;100.00;98529.09;5055366;28;20098;-63
2024/02/01 09:50:20;;;;;;;1.13;0.50;;;;;;;7.54;100.00;98544.84;5045075;28;20025;-63
2024/02/01 09:52:49;;;;;;;2.22;0.60;;;;;;;7.60;100.00;98536.97;5042091;28;20048;-63
2024/02/01 09:55:17;;;;;;;0.47;0.35;;;;;;;7.65;100.00;98540.72;5044460;28;20045;-63
2024/02/01 09:57:45;;;;;;;0.80;0.40;;;;;;;7.59;100.00;98538.81;5046738;28;20071;-62
2024/02/01 10:00:15;;;;;;;2.35;0.60;;;;;;;7.41;100.00;98542.91;5042579;28;20037;-62
2024/02/01 10:02:54;;;;;;;2.50;0.80;;;;;;;7.42;100.00;98544.56;5055245;28;20663;-62
2024/02/01 10:05:22;;;;;;;1.15;0.63;;;;;;;7.40;100.00;98548.50;5034919;28;20041;-62
2024/02/01 10:07:57;;;;;;;2.40;0.80;;;;;;;7.37;100.00;98551.63;5032307;28;20044;-62
2024/02/01 10:10:24;;;;;;;0.85;0.40;;;;;;;7.41;100.00;98556.41;5049328;28;20098;-63
2024/02/01 10:12:58;;;;;;;1.25;0.60;;;;;;;7.37;100.00;98552.44;5043693;28;20047;-62
2024/02/01 10:15:27;;;;;;;0.70;0.57;;;;;;;7.48;100.00;98544.81;5036658;28;20038;-63
2024/02/01 10:17:53;;;;;;;1.20;0.82;;;;;;;7.41;100.00;98542.91;5046936;28;20048;-63
2024/02/01 10:20:34;;;;;;;1.40;0.70;;;;;;;7.32;100.00;98554.91;5045888;28;20106;-63
2024/02/01 10:23:05;;;;;;;1.27;0.80;;;;;;;7.45;100.00;98551.44;5037105;28;20568;-63
2024/02/01 10:25:33;;;;;;;1.58;0.70;;;;;;;7.44;100.00;98543.56;5042523;28;20050;-63
2024/02/01 10:28:04;;;;;;;2.92;0.73;;;;;;;7.54;100.00;98541.31;5046269;28;20051;-63
2024/02/01 10:30:31;;;;;;;2.15;0.60;;;;;;;7.48;100.00;98536.75;5031567;28;20042;-63
2024/02/01 10:33:01;;;;;;;1.67;0.70;;;;;;;7.41;100.00;98545.63;5042637;28;20053;-63
2024/02/01 10:35:30;;;;;;;1.00;0.57;;;;;;;7.42;100.00;98554.53;5044776;28;20079;-63
2024/02/01 10:38:00;;;;;;;1.40;0.70;;;;;;;7.58;100.00;98537.16;5049893;28;20052;-64
2024/02/01 10:40:39;;;;;;;0.98;0.47;;;;;;;7.34;100.00;98552.03;5040916;28;20547;-63
2024/02/01 10:43:07;;;;;;;1.80;0.82;;;;;;;7.42;100.00;98539.19;5038773;28;20050;-64
2024/02/01 10:45:37;;;;;;;0.73;0.50;;;;;;;7.40;100.00;98551.19;5041415;28;20036;-63
2024/02/01 10:48:10;;;;;;;1.02;0.60;;;;;;;7.24;100.00;98536.22;5032573;28;20045;-63
2024/02/01 10:50:38;;;;;;;1.20;0.60;;;;;;;7.29;100.00;98537.28;5045939;28;20044;-61
2024/02/01 10:53:08;;;;;;;1.25;0.70;;;;;;;7.25;100.00;98538.72;5044961;28;20040;-63
2024/02/01 10:55:38;;;;;;;1.35;0.75;;;;;;;7.30;100.00;98540.84;5044516;28;20075;-62
2024/02/01 10:58:12;;;;;;;1.38;0.63;;;;;;;7.14;100.00;98529.38;5033408;28;20045;-63
2024/02/01 11:00:43;;;;;;;1.42;0.70;;;;;;;7.31;100.00;98529.00;5028663;28;20119;-62
2024/02/01 11:03:15;;;;;;;2.40;1.00;;;;;;;7.34;100.00;98525.09;5045181;28;20091;-62
2024/02/01 11:05:42;;;;;;;2.10;0.90;;;;;;;7.37;100.00;98512.03;5035809;28;20045;-62
2024/02/01 11:08:16;;;;;;;1.67;0.85;;;;;;;7.33;100.00;98528.81;5039854;28;20067;-61
2024/02/01 11:10:58;;;;;;;2.40;1.00;;;;;;;7.45;100.00;98531.75;5036313;28;20429;-62
2024/02/01 11:13:28;;;;;;;1.75;0.88;;;;;;;7.58;100.00;98521.00;5038107;28;20041;-61
2024/02/01 11:15:56;;;;;;;3.25;1.00;;;;;;;7.67;100.00;98517.06;5045365;28;20059;-61
2024/02/01 11:18:22;;;;;;;1.55;0.80;;;;;;;7.65;100.00;98513.75;5041995;28;20045;-62
2024/02/01 11:20:56;;;;;;;2.00;0.90;;;;;;;7.55;100.00;98513.31;5042121;28;20045;-62
2024/02/01 11:23:23;;;;;;;2.35;1.00;;;;;;;7.60;100.00;98516.25;5036484;28;20048;-61
2024/02/01 11:25:55;;;;;;;2.22;1.08;;;;;;;7.41;100.00;98520.56;5040035;28;20056;-62
2024/02/01 11:28:28;;;;;;;1.77;0.80;;;;;;;7.41;100.00;98513.28;5046762;28;20059;-62
2024/02/01 11:31:00;;;;;;;1.77;0.95;;;;;;;7.50;100.00;98515.78;5039373;28;20049;-60
2024/02/01 11:33:37;;;;;;;2.80;1.05;;;;;;;7.58;100.00;98509.38;5047213;28;20045;-60
2024/02/01 11:36:05;;;;;;;2.15;1.00;;;;;;;7.76;100.00;98506.09;5035661;28;20577;-62
2024/02/01 11:38:32;;;;;;;1.40;0.80;;;;;;;7.59;100.00;98500.28;5036031;28;20052;-62
2024/02/01 11:40:59;;;;;;;1.27;0.80;;;;;;;7.59;100.00;98505.66;5041629;28;20055;-61
2024/02/01 11:43:27;;;;;;;2.35;0.88;;;;;;;7.61;100.00;98506.28;5052566;28;20132;-62
2024/02/01 11:45:53;;;;;;;1.92;0.80;;;;;;;7.66;100.00;98517.28;5039366;28;20064;-61
2024/02/01 11:48:21;;;;;;;1.42;0.90;;;;;;;7.67;100.00;98508.16;5035270;28;20076;-61
2024/02/01 11:50:53;;;;;;;2.33;0.98;;;;;;;7.57;100.00;98519.34;5031935;28;20033;-61
2024/02/01 11:53:20;;;;;;;1.58;0.73;;;;;;;7.78;100.00;98526.41;5042702;28;20043;-62
2024/02/01 11:55:48;;;;;;;3.10;0.85;;;;;;;7.61;100.00;98520.59;5030811;28;20060;-63
2024/02/01 11:58:22;;;;;;;2.00;0.90;;;;;;;7.53;100.00;98518.09;5046643;28;20048;-61
2024/02/01 12:00:55;;;;;;;1.48;0.82;;;;;;;7.58;100.00;98518.31;5036342;28;20048;-61
2024/02/01 12:03:45;;;;;;;1.30;0.75;;;;;;;7.54;100.00;98523.28;5037634;28;20774;-61
2024/02/01 12:06:13;;;;;;;1.90;0.98;;;;;;;7.46;100.00;98515.38;5042901;28;20051;-61
2024/02/01 12:08:40;;;;;;;1.60;1.08;;;;;;;7.46;100.00;98514.53;5047933;28;20127;-62
2024/02/01 12:11:07;;;;;;;1.58;0.90;;;;;;;7.42;100.00;98516.81;5044148;28;20128;-63
2024/02/01 12:13:34;;;;;;;2.85;1.15;;;;;;;7.44;100.00;98520.13;5036412;28;20057;-61
2024/02/01 12:16:00;;;;;;;2.42;1.27;;;;;;;7.45;100.00;98516.41;5033184;28;20044;-62
2024/02/01 12:18:29;;;;;;;3.05;1.50;;;;;;;7.57;100.00;98519.34;5037338;28;20051;-61
2024/02/01 12:20:56;;;;;;;3.30;1.40;;;;;;;7.47;100.00;98522.41;5040352;28;20048;-61
2024/02/01 12:23:22;;;;;;;2.50;1.30;;;;;;;7.49;100.00;98519.53;5042956;28;20122;-61
2024/02/01 12:25:50;;;;;;;2.58;1.48;;;;;;;7.43;100.00;98510.38;5032223;28;20388;-61